createdAt,value
2018-07-25T00:01:05.559Z,25.20
2018-07-25T00:03:33.945Z,25.27
2018-07-25T00:06:02.317Z,25.29
2018-07-25T00:08:30.744Z,25.34
2018-07-25T00:10:59.063Z,25.42
2018-07-25T00:13:27.772Z,25.46
2018-07-25T00:15:56.776Z,25.39
2018-07-25T00:18:25.131Z,25.28
2018-07-25T00:20:53.461Z,25.16
2018-07-25T00:23:21.858Z,25.04
2018-07-25T00:25:50.223Z,24.92
2018-07-25T00:28:18.588Z,24.85
2018-07-25T00:30:46.927Z,24.78
2018-07-25T00:33:15.387Z,24.67
2018-07-25T00:35:43.723Z,24.58
2018-07-25T00:38:12.056Z,24.50
2018-07-25T00:40:40.437Z,24.44
2018-07-25T00:43:08.790Z,24.33
2018-07-25T00:45:37.172Z,24.26
2018-07-25T00:48:05.515Z,24.19
2018-07-25T00:50:33.855Z,24.17
2018-07-25T00:53:02.181Z,24.12
2018-07-25T00:55:30.919Z,24.04
2018-07-25T00:57:59.290Z,24.02
2018-07-25T01:00:27.611Z,24.03
2018-07-25T01:02:56.042Z,24.01
2018-07-25T01:05:24.384Z,23.98
2018-07-25T01:07:52.743Z,23.97
2018-07-25T01:10:21.157Z,23.95
2018-07-25T01:12:49.518Z,23.91
2018-07-25T01:15:17.840Z,23.82
2018-07-25T01:17:46.188Z,23.71
2018-07-25T01:20:14.509Z,23.62
2018-07-25T01:22:42.873Z,23.52
2018-07-25T01:25:11.217Z,23.44
2018-07-25T01:27:39.537Z,23.43
2018-07-25T01:30:07.925Z,23.42
2018-07-25T01:32:36.285Z,23.41
2018-07-25T01:35:04.756Z,23.37
2018-07-25T01:37:33.053Z,23.32
2018-07-25T01:40:01.395Z,23.30
2018-07-25T01:42:29.775Z,23.28
2018-07-25T01:44:58.139Z,23.25
2018-07-25T01:47:26.447Z,23.21
2018-07-25T01:49:54.768Z,23.23
2018-07-25T01:52:23.135Z,23.24
2018-07-25T01:54:51.488Z,23.23
2018-07-25T01:57:19.848Z,23.20
2018-07-25T01:59:48.229Z,23.16
2018-07-25T02:02:16.591Z,23.12
2018-07-25T02:04:44.950Z,23.05
2018-07-25T02:07:13.308Z,22.99
2018-07-25T02:09:41.687Z,22.93
2018-07-25T02:12:10.366Z,22.87
2018-07-25T02:14:38.822Z,22.84
2018-07-25T02:17:07.170Z,22.78
2018-07-25T02:19:35.605Z,22.73
2018-07-25T02:22:03.880Z,22.68
2018-07-25T02:24:32.271Z,22.66
2018-07-25T02:27:00.578Z,22.62
2018-07-25T02:29:28.963Z,22.59
2018-07-25T02:31:57.306Z,22.59
2018-07-25T02:34:25.646Z,22.56
2018-07-25T02:36:54.045Z,22.54
2018-07-25T02:39:22.377Z,22.49
2018-07-25T02:41:50.732Z,22.47
2018-07-25T02:44:19.036Z,22.45
2018-07-25T02:46:47.357Z,22.37
2018-07-25T02:49:15.699Z,22.32
2018-07-25T02:51:44.063Z,22.28
2018-07-25T02:54:12.458Z,22.25
2018-07-25T02:56:40.856Z,22.25
2018-07-25T02:59:09.230Z,22.24
2018-07-25T03:01:37.606Z,22.23
2018-07-25T03:04:05.928Z,22.20
2018-07-25T03:06:34.299Z,22.14
2018-07-25T03:09:02.729Z,22.09
2018-07-25T03:11:30.972Z,22.06
2018-07-25T03:13:59.334Z,22.03
2018-07-25T03:16:27.662Z,22.03
2018-07-25T03:18:55.985Z,22.03
2018-07-25T03:21:24.351Z,22.00
2018-07-25T03:23:52.667Z,21.97
2018-07-25T03:26:21.077Z,21.93
2018-07-25T03:28:49.432Z,21.90
2018-07-25T03:31:17.848Z,21.89
2018-07-25T03:33:46.130Z,21.88
2018-07-25T03:36:14.517Z,21.85
2018-07-25T03:38:42.828Z,21.84
2018-07-25T03:41:11.178Z,21.81
2018-07-25T03:43:39.532Z,21.77
2018-07-25T03:46:07.881Z,21.74
2018-07-25T03:48:36.221Z,21.72
2018-07-25T03:51:04.578Z,21.74
2018-07-25T03:53:32.902Z,21.72
2018-07-25T03:56:01.289Z,21.72
2018-07-25T03:58:29.625Z,21.70
2018-07-25T04:00:57.960Z,21.69
2018-07-25T04:03:26.297Z,21.69
2018-07-25T04:05:54.706Z,21.67
2018-07-25T04:08:23.040Z,21.67
2018-07-25T04:13:32.455Z,21.69
2018-07-25T04:16:00.755Z,21.73
2018-07-25T04:18:29.152Z,21.76
2018-07-25T04:20:57.456Z,21.82
2018-07-25T04:23:25.794Z,22.03
2018-07-25T04:25:54.430Z,22.42
2018-07-25T04:28:22.879Z,22.78
2018-07-25T04:30:51.225Z,22.80
2018-07-25T04:33:19.586Z,23.00
2018-07-25T04:35:47.942Z,23.68
2018-07-25T04:38:16.268Z,24.57
2018-07-25T04:40:44.671Z,25.40
2018-07-25T04:43:13.001Z,26.09
2018-07-25T04:45:41.357Z,26.77
2018-07-25T04:48:09.693Z,27.18
2018-07-25T04:50:38.027Z,27.53
2018-07-25T04:53:06.664Z,27.98
2018-07-25T04:55:34.998Z,28.43
2018-07-25T04:58:03.296Z,28.90
2018-07-25T05:00:31.710Z,29.35
2018-07-25T05:03:00.000Z,29.77
2018-07-25T05:05:28.346Z,30.09
2018-07-25T05:07:56.679Z,30.38
2018-07-25T05:10:25.012Z,30.66
2018-07-25T05:12:53.410Z,30.93
2018-07-25T05:15:21.940Z,31.15
2018-07-25T05:17:50.340Z,31.40
2018-07-25T05:20:18.661Z,31.69
2018-07-25T05:22:47.055Z,31.88
2018-07-25T05:25:15.380Z,32.01
2018-07-25T05:27:43.693Z,32.23
2018-07-25T05:30:12.227Z,32.39
2018-07-25T05:32:40.521Z,32.59
2018-07-25T05:35:08.907Z,32.76
2018-07-25T05:37:37.216Z,32.74
2018-07-25T05:40:05.609Z,32.90
2018-07-25T05:42:33.936Z,32.84
2018-07-25T05:45:02.267Z,32.78
2018-07-25T05:47:30.592Z,32.74
2018-07-25T05:49:58.957Z,32.56
2018-07-25T05:52:27.312Z,32.36
2018-07-25T05:54:55.685Z,32.21
2018-07-25T05:57:24.077Z,31.88
2018-07-25T05:59:52.420Z,31.62
2018-07-25T06:02:20.803Z,31.17
2018-07-25T06:04:49.121Z,30.76
2018-07-25T06:07:17.476Z,30.30
2018-07-25T06:09:45.824Z,29.89
2018-07-25T06:12:14.139Z,29.67
2018-07-25T06:14:42.485Z,29.39
2018-07-25T06:17:10.992Z,29.22
2018-07-25T06:19:39.334Z,29.10
2018-07-25T06:22:07.980Z,28.81
2018-07-25T06:24:36.328Z,28.56
2018-07-25T06:27:04.706Z,28.43
2018-07-25T06:29:33.066Z,28.37
2018-07-25T06:32:01.403Z,28.36
2018-07-25T06:34:29.754Z,28.33
2018-07-25T06:36:58.104Z,28.18
2018-07-25T06:39:26.436Z,28.05
2018-07-25T06:41:55.040Z,27.92
2018-07-25T06:44:23.374Z,27.88
2018-07-25T06:46:51.883Z,27.79
2018-07-25T06:49:20.265Z,27.69
2018-07-25T06:51:48.695Z,27.63
2018-07-25T06:54:17.129Z,27.52
2018-07-25T06:56:45.479Z,27.48
2018-07-25T06:59:13.845Z,27.45
2018-07-25T07:01:42.168Z,27.36
2018-07-25T07:04:10.524Z,27.26
2018-07-25T07:06:38.940Z,27.26
2018-07-25T07:09:08.917Z,27.29
2018-07-25T07:11:37.339Z,27.17
2018-07-25T07:14:05.728Z,27.25
2018-07-25T07:16:34.061Z,27.46
2018-07-25T07:19:02.406Z,27.54
2018-07-25T07:21:30.700Z,27.55
2018-07-25T07:23:59.145Z,27.50
2018-07-25T07:26:27.423Z,27.48
2018-07-25T07:28:55.815Z,27.42
2018-07-25T07:31:24.194Z,27.40
2018-07-25T07:33:52.577Z,27.47
2018-07-25T07:36:20.901Z,27.52
2018-07-25T07:38:49.270Z,27.57
2018-07-25T07:41:17.651Z,27.56
2018-07-25T07:43:46.023Z,27.57
2018-07-25T07:46:14.713Z,27.63
2018-07-25T07:48:43.043Z,27.73
2018-07-25T07:51:11.425Z,27.73
2018-07-25T07:53:39.791Z,27.75
2018-07-25T07:56:08.089Z,27.76
2018-07-25T07:58:36.444Z,27.83
2018-07-25T08:01:04.817Z,27.85
2018-07-25T08:03:33.184Z,27.90
2018-07-25T08:06:02.099Z,27.98
2018-07-25T08:08:30.627Z,28.07
2018-07-25T08:10:59.018Z,28.06
2018-07-25T08:13:27.387Z,28.11
2018-07-25T08:15:55.740Z,28.20
2018-07-25T08:18:24.105Z,28.23
2018-07-25T08:20:52.484Z,28.25
2018-07-25T08:23:20.811Z,28.25
2018-07-25T08:25:49.172Z,28.32
2018-07-25T08:28:17.853Z,28.36
2018-07-25T08:30:46.194Z,28.51
2018-07-25T08:33:14.723Z,28.64
2018-07-25T08:35:43.041Z,28.63
2018-07-25T08:38:11.410Z,28.66
2018-07-25T08:40:39.718Z,28.66
2018-07-25T08:43:08.067Z,28.64
2018-07-25T08:45:36.385Z,28.73
2018-07-25T08:48:04.869Z,28.84
2018-07-25T08:50:33.218Z,28.90
2018-07-25T08:53:01.578Z,28.80
2018-07-25T08:55:30.092Z,28.84
2018-07-25T08:57:58.444Z,28.83
2018-07-25T09:00:26.832Z,28.91
2018-07-25T09:02:55.209Z,28.98
2018-07-25T09:05:23.541Z,29.06
2018-07-25T09:07:51.884Z,29.09
2018-07-25T09:10:20.340Z,29.02
2018-07-25T09:12:48.740Z,29.03
2018-07-25T09:15:17.027Z,29.14
2018-07-25T09:17:45.472Z,29.21
2018-07-25T09:20:13.824Z,29.23
2018-07-25T09:22:42.179Z,29.26
2018-07-25T09:25:10.655Z,29.26
2018-07-25T09:27:39.007Z,29.35
2018-07-25T09:30:07.368Z,29.46
2018-07-25T09:32:35.722Z,29.51
2018-07-25T09:35:04.066Z,29.60
2018-07-25T09:37:32.446Z,29.71
2018-07-25T09:40:00.796Z,29.81
2018-07-25T09:42:29.141Z,29.92
2018-07-25T09:44:57.674Z,30.04
2018-07-25T09:47:26.042Z,30.13
2018-07-25T09:49:54.390Z,30.19
2018-07-25T09:52:22.772Z,30.21
2018-07-25T09:54:51.129Z,30.20
2018-07-25T09:57:19.555Z,30.23
2018-07-25T09:59:47.894Z,30.31
2018-07-25T10:02:16.286Z,30.43
2018-07-25T10:04:44.677Z,30.45
2018-07-25T10:07:13.068Z,30.46
2018-07-25T10:09:41.326Z,30.48
2018-07-25T10:12:09.673Z,30.47
2018-07-25T10:14:38.189Z,30.50
2018-07-25T10:17:06.656Z,30.56
2018-07-25T10:19:35.032Z,30.59
2018-07-25T10:22:03.663Z,30.65
2018-07-25T10:24:32.002Z,30.71
2018-07-25T10:27:00.349Z,30.70
2018-07-25T10:29:28.816Z,30.71
2018-07-25T10:31:57.100Z,30.80
2018-07-25T10:34:25.492Z,30.88
2018-07-25T10:36:53.844Z,30.93
2018-07-25T10:39:22.283Z,31.00
2018-07-25T10:41:50.632Z,31.07
2018-07-25T10:44:19.021Z,31.15
2018-07-25T10:46:47.379Z,31.13
2018-07-25T10:49:15.700Z,31.16
2018-07-25T10:51:44.059Z,31.26
2018-07-25T10:54:12.479Z,31.39
2018-07-25T10:56:40.817Z,31.44
2018-07-25T10:59:09.167Z,31.56
2018-07-25T11:01:37.507Z,31.57
2018-07-25T11:04:05.899Z,31.53
2018-07-25T11:06:34.293Z,31.50
2018-07-25T11:09:02.736Z,31.48
2018-07-25T11:11:31.228Z,31.50
2018-07-25T11:14:00.755Z,31.57
2018-07-25T11:16:29.449Z,31.61
2018-07-25T11:18:57.686Z,31.63
2018-07-25T11:21:26.077Z,31.66
2018-07-25T11:23:54.443Z,31.78
2018-07-25T11:26:22.736Z,31.84
2018-07-25T11:28:51.091Z,31.86
2018-07-25T11:31:19.444Z,31.90
2018-07-25T11:33:47.884Z,31.91
2018-07-25T11:36:16.234Z,31.94
2018-07-25T11:38:44.533Z,31.96
2018-07-25T11:41:12.816Z,32.05
2018-07-25T11:43:41.300Z,32.02
2018-07-25T11:46:09.666Z,31.96
2018-07-25T11:48:38.004Z,31.93
2018-07-25T11:51:07.127Z,31.90
2018-07-25T11:53:35.448Z,31.87
2018-07-25T11:56:03.808Z,31.93
2018-07-25T11:58:32.128Z,32.03
2018-07-25T12:01:00.523Z,32.16
2018-07-25T12:03:28.829Z,32.26
2018-07-25T12:05:57.181Z,32.36
2018-07-25T12:08:25.560Z,32.48
2018-07-25T12:10:53.901Z,32.52
2018-07-25T12:13:22.268Z,32.50
2018-07-25T12:15:50.605Z,32.49
2018-07-25T12:18:18.916Z,32.57
2018-07-25T12:20:47.259Z,32.75
2018-07-25T12:23:15.659Z,32.92
2018-07-25T12:25:44.008Z,33.04
2018-07-25T12:28:12.369Z,33.13
2018-07-25T12:30:40.720Z,33.22
2018-07-25T12:33:09.060Z,33.30
2018-07-25T12:35:37.412Z,33.22
2018-07-25T12:38:05.773Z,33.26
2018-07-25T12:40:34.104Z,33.26
2018-07-25T12:43:02.449Z,33.22
2018-07-25T12:45:30.814Z,33.21
2018-07-25T12:47:59.204Z,33.22
2018-07-25T12:50:27.532Z,33.25
2018-07-25T12:52:55.873Z,33.32
2018-07-25T12:55:24.246Z,33.36
2018-07-25T12:57:52.918Z,33.37
2018-07-25T13:00:21.303Z,33.34
2018-07-25T13:02:49.769Z,33.31
2018-07-25T13:05:18.140Z,33.30
2018-07-25T13:07:46.690Z,33.29
2018-07-25T13:10:15.038Z,33.30
2018-07-25T13:12:43.557Z,33.23
2018-07-25T13:15:11.956Z,33.27
2018-07-25T13:17:40.299Z,33.32
2018-07-25T13:20:08.662Z,33.43
2018-07-25T13:22:37.052Z,33.48
2018-07-25T13:25:05.661Z,33.49
2018-07-25T13:27:34.037Z,33.51
2018-07-25T13:30:02.446Z,33.54
2018-07-25T13:32:30.811Z,33.56
2018-07-25T13:34:59.156Z,33.65
2018-07-25T13:37:27.500Z,33.65
2018-07-25T13:39:55.869Z,33.70
2018-07-25T13:42:24.233Z,33.69
2018-07-25T13:44:52.628Z,33.58
2018-07-25T13:47:21.038Z,33.52
2018-07-25T13:49:49.336Z,33.40
2018-07-25T13:52:17.779Z,33.27
2018-07-25T13:54:46.159Z,33.14
2018-07-25T13:57:14.592Z,33.03
2018-07-25T13:59:42.963Z,32.97
2018-07-25T14:02:11.309Z,32.97
2018-07-25T14:04:39.991Z,32.96
2018-07-25T14:07:08.325Z,32.90
2018-07-25T14:09:36.820Z,32.86
2018-07-25T14:12:05.282Z,32.80
2018-07-25T14:14:33.594Z,32.79
2018-07-25T14:17:01.972Z,32.78
2018-07-25T14:19:30.328Z,32.75
2018-07-25T14:21:58.666Z,32.73
2018-07-25T14:24:27.130Z,32.69
2018-07-25T14:26:55.381Z,32.65
2018-07-25T14:29:23.739Z,32.59
2018-07-25T14:31:52.102Z,32.55
2018-07-25T14:34:20.485Z,32.50
2018-07-25T14:36:48.845Z,32.47
2018-07-25T14:39:17.304Z,32.44
2018-07-25T14:41:45.740Z,32.42
2018-07-25T14:44:14.111Z,32.42
2018-07-25T14:46:42.503Z,32.43
2018-07-25T14:49:10.824Z,32.42
2018-07-25T14:51:39.204Z,32.38
2018-07-25T14:54:07.572Z,32.39
2018-07-25T14:56:35.920Z,32.39
2018-07-25T14:59:04.264Z,32.33
2018-07-25T15:01:32.641Z,32.24
2018-07-25T15:04:01.113Z,32.18
2018-07-25T15:06:29.652Z,32.14
2018-07-25T15:08:57.978Z,32.14
2018-07-25T15:11:26.324Z,32.19
2018-07-25T15:13:54.671Z,32.29
2018-07-25T15:16:23.024Z,32.42
2018-07-25T15:18:51.347Z,32.59
2018-07-25T15:21:19.850Z,32.67
2018-07-25T15:23:56.843Z,32.77
2018-07-25T15:26:25.225Z,32.86
2018-07-25T15:28:53.621Z,32.83
2018-07-25T15:31:22.008Z,32.78
2018-07-25T15:33:50.376Z,32.76
2018-07-25T15:36:28.457Z,32.74
2018-07-25T15:38:56.911Z,32.75
2018-07-25T15:41:25.160Z,32.71
2018-07-25T15:43:53.882Z,32.65
2018-07-25T15:46:22.173Z,32.61
2018-07-25T15:48:50.563Z,32.58
2018-07-25T15:51:18.947Z,32.56
2018-07-25T15:53:47.295Z,32.55
2018-07-25T15:56:15.752Z,32.51
2018-07-25T15:58:44.115Z,32.50
2018-07-25T16:01:12.500Z,32.56
2018-07-25T16:03:40.829Z,32.67
2018-07-25T16:06:09.155Z,32.82
2018-07-25T16:08:37.558Z,33.00
2018-07-25T16:11:05.947Z,33.08
2018-07-25T16:13:34.312Z,33.13
2018-07-25T16:16:02.691Z,33.11
2018-07-25T16:18:31.144Z,33.05
2018-07-25T16:20:59.538Z,32.90
2018-07-25T16:23:27.860Z,32.78
2018-07-25T16:25:56.182Z,32.61
2018-07-25T16:28:24.562Z,32.50
2018-07-25T16:30:52.952Z,32.40
2018-07-25T16:33:21.266Z,32.34
2018-07-25T16:35:49.746Z,32.30
2018-07-25T16:38:18.114Z,32.21
2018-07-25T16:40:46.430Z,32.12
2018-07-25T16:43:14.747Z,32.06
2018-07-25T16:45:43.760Z,32.04
2018-07-25T16:48:12.181Z,32.01
2018-07-25T16:50:40.724Z,31.90
2018-07-25T16:53:09.101Z,31.81
2018-07-25T16:55:37.484Z,31.71
2018-07-25T16:58:06.238Z,31.62
2018-07-25T17:00:34.796Z,31.53
2018-07-25T17:03:03.152Z,31.44
2018-07-25T17:05:31.478Z,31.39
2018-07-25T17:07:59.809Z,31.32
2018-07-25T17:10:28.166Z,31.21
2018-07-25T17:12:56.706Z,31.09
2018-07-25T17:15:25.209Z,30.97
2018-07-25T17:17:53.616Z,30.84
2018-07-25T17:20:22.014Z,30.70
2018-07-25T17:22:50.293Z,30.63
2018-07-25T17:25:18.609Z,30.55
2018-07-25T17:27:46.962Z,30.45
2018-07-25T17:30:15.429Z,30.42
2018-07-25T17:32:43.792Z,30.42
2018-07-25T17:35:12.146Z,30.40
2018-07-25T17:37:40.491Z,30.32
2018-07-25T17:40:08.848Z,30.23
2018-07-25T17:42:37.323Z,30.13
2018-07-25T17:45:07.977Z,30.03
2018-07-25T17:47:36.387Z,29.93
2018-07-25T17:50:05.741Z,29.79
2018-07-25T17:52:34.081Z,29.69
2018-07-25T17:55:02.517Z,29.64
2018-07-25T17:57:30.894Z,29.55
2018-07-25T17:59:59.224Z,29.48
2018-07-25T18:02:27.979Z,29.42
2018-07-25T18:04:56.563Z,29.27
2018-07-25T18:07:24.934Z,29.18
2018-07-25T18:09:53.413Z,29.09
2018-07-25T18:12:21.799Z,28.99
2018-07-25T18:14:50.141Z,28.88
2018-07-25T18:17:18.783Z,28.84
2018-07-25T18:19:47.107Z,28.79
2018-07-25T18:22:15.424Z,28.71
2018-07-25T18:24:44.169Z,28.65
2018-07-25T18:27:12.481Z,28.58
2018-07-25T18:29:40.801Z,28.53
2018-07-25T18:32:09.162Z,28.45
2018-07-25T18:34:37.500Z,28.40
2018-07-25T18:37:05.833Z,28.38
2018-07-25T18:39:34.217Z,28.29
2018-07-25T18:42:02.567Z,28.23
2018-07-25T18:44:30.994Z,28.20
2018-07-25T18:46:59.322Z,28.11
2018-07-25T18:49:27.692Z,28.05
2018-07-25T18:51:56.073Z,27.98
2018-07-25T18:54:24.484Z,27.93
2018-07-25T18:56:52.888Z,27.87
2018-07-25T18:59:21.191Z,27.82
2018-07-25T19:01:49.614Z,27.75
2018-07-25T19:04:17.910Z,27.68
2018-07-25T19:06:46.355Z,27.62
2018-07-25T19:09:16.267Z,27.59
2018-07-25T19:11:45.239Z,27.56
2018-07-25T19:14:19.043Z,27.54
2018-07-25T19:16:47.766Z,27.49
2018-07-25T19:19:16.172Z,27.45
2018-07-25T19:21:44.637Z,27.42
2018-07-25T19:24:13.011Z,27.40
2018-07-25T19:26:41.411Z,27.38
2018-07-25T19:29:09.794Z,27.33
2018-07-25T19:31:38.152Z,27.29
2018-07-25T19:34:06.511Z,27.26
2018-07-25T19:36:34.882Z,27.25
2018-07-25T19:39:03.737Z,27.22
2018-07-25T19:41:32.242Z,27.22
2018-07-25T19:44:00.632Z,27.20
2018-07-25T19:46:29.116Z,27.18
2018-07-25T19:48:57.500Z,27.18
2018-07-25T19:51:25.819Z,27.16
2018-07-25T19:53:54.158Z,27.16
2018-07-25T19:56:22.613Z,27.13
2018-07-25T19:58:50.963Z,27.09
2018-07-25T20:01:19.340Z,27.08
2018-07-25T20:03:47.714Z,27.06
2018-07-25T20:06:16.126Z,27.05
2018-07-25T20:08:44.693Z,27.02
2018-07-25T20:11:13.111Z,26.98
2018-07-25T20:13:47.009Z,26.95
2018-07-25T20:16:15.463Z,26.91
2018-07-25T20:18:44.111Z,26.90
2018-07-25T20:21:12.471Z,26.87
2018-07-25T20:23:40.944Z,26.86
2018-07-25T20:26:09.386Z,26.81
2018-07-25T20:28:37.859Z,26.77
2018-07-25T20:31:06.310Z,26.74
2018-07-25T20:33:34.779Z,26.72
2018-07-25T20:36:03.159Z,26.71
2018-07-25T20:38:31.535Z,26.69
2018-07-25T20:40:59.916Z,26.66
2018-07-25T20:43:28.255Z,26.63
2018-07-25T20:45:56.619Z,26.59
2018-07-25T20:48:25.024Z,26.55
2018-07-25T20:50:53.373Z,26.54
2018-07-25T20:53:21.761Z,26.54
2018-07-25T20:55:50.138Z,26.53
2018-07-25T20:58:18.530Z,26.50
2018-07-25T21:00:46.944Z,26.48
2018-07-25T21:03:15.292Z,26.46
2018-07-25T21:05:43.667Z,26.43
2018-07-25T21:08:12.034Z,26.42
2018-07-25T21:10:40.425Z,26.40
2018-07-25T21:13:08.819Z,26.34
2018-07-25T21:15:37.244Z,26.30
2018-07-25T21:18:05.748Z,26.26
2018-07-25T21:20:34.098Z,26.24
2018-07-25T21:23:02.416Z,26.21
2018-07-25T21:25:30.793Z,26.19
2018-07-25T21:27:59.116Z,26.17
2018-07-25T21:30:27.935Z,26.17
2018-07-25T21:32:56.255Z,26.13
2018-07-25T21:35:24.618Z,26.10
2018-07-25T21:37:53.194Z,26.06
2018-07-25T21:40:21.575Z,26.04
2018-07-25T21:42:50.152Z,26.03
2018-07-25T21:45:18.486Z,26.02
2018-07-25T21:47:46.890Z,26.00
2018-07-25T21:50:15.216Z,25.97
2018-07-25T21:52:43.518Z,25.94
2018-07-25T21:55:11.861Z,25.90
2018-07-25T21:57:40.193Z,25.88
2018-07-25T22:00:13.318Z,25.82
2018-07-25T22:02:41.632Z,25.73
2018-07-25T22:05:10.050Z,25.61
2018-07-25T22:07:38.548Z,25.52
2018-07-25T22:10:07.737Z,25.42
2018-07-25T22:12:36.100Z,25.37
2018-07-25T22:15:05.057Z,25.32
2018-07-25T22:17:33.341Z,25.29
2018-07-25T22:20:01.765Z,25.26
2018-07-25T22:22:30.078Z,25.26
2018-07-25T22:24:58.407Z,25.28
2018-07-25T22:27:26.772Z,25.31
2018-07-25T22:29:55.211Z,25.33
2018-07-25T22:32:23.574Z,25.34
2018-07-25T22:34:51.901Z,25.32
2018-07-25T22:37:20.251Z,25.28
2018-07-25T22:39:48.572Z,25.26
2018-07-25T22:42:16.889Z,25.25
2018-07-25T22:44:45.209Z,25.22
2018-07-25T22:47:13.536Z,25.16
2018-07-25T22:49:41.876Z,25.10
2018-07-25T22:52:10.231Z,25.07
2018-07-25T22:54:38.550Z,25.01
2018-07-25T22:57:06.911Z,24.97
2018-07-25T22:59:35.224Z,24.90
2018-07-25T23:02:04.004Z,24.83
2018-07-25T23:04:32.349Z,24.77
2018-07-25T23:07:00.690Z,24.71
2018-07-25T23:09:29.005Z,24.68
2018-07-25T23:11:57.382Z,24.68
2018-07-25T23:14:26.091Z,24.70
2018-07-25T23:16:54.467Z,24.75
2018-07-25T23:19:22.799Z,24.76
2018-07-25T23:21:51.223Z,24.75
2018-07-25T23:24:19.580Z,24.69
2018-07-25T23:26:47.930Z,24.70
2018-07-25T23:29:16.320Z,24.70
2018-07-25T23:31:44.842Z,24.69
2018-07-25T23:34:13.161Z,24.69
2018-07-25T23:36:41.471Z,24.68
2018-07-25T23:39:10.853Z,24.69
2018-07-25T23:41:39.389Z,24.68
2018-07-25T23:44:08.077Z,24.63
2018-07-25T23:46:36.964Z,24.55
2018-07-25T23:49:05.445Z,24.46
2018-07-25T23:51:33.825Z,24.35
2018-07-25T23:54:02.290Z,24.28
2018-07-25T23:56:30.896Z,24.19
2018-07-25T23:58:59.334Z,24.13
